Time,TemperatureF,DewpointF,PressureIn,WindDirection,WindDirectionDegrees,WindSpeedMPH,WindSpeedGustMPH,Humidity,HourlyPrecipIn,Conditions,Clouds,dailyrainin,SoftwareType,DateUTC
2013-02-16 00:00:00,33.5,31.2,30.00,North,-999,0.0,0.0,91,0.00,,,-99.99,WeatherLink 5.4,2013-02-16 05:00:00,
2013-02-16 00:15:00,33.2,31.1,30.01,North,-999,0.0,0.0,92,0.00,,,-99.99,WeatherLink 5.4,2013-02-16 05:15:00,
2013-02-16 00:20:00,33.2,31.1,30.01,North,-999,0.0,0.0,92,0.00,,,-99.99,WeatherLink 5.4,2013-02-16 05:20:00,
2013-02-16 00:30:00,32.9,30.8,30.01,North,-999,0.0,0.0,92,0.00,,,-99.99,WeatherLink 5.4,2013-02-16 05:30:00,
2013-02-16 00:45:00,33.1,31.3,30.00,North,-999,0.0,0.0,93,0.00,,,-99.99,WeatherLink 5.4,2013-02-16 05:45:00,
2013-02-16 00:50:00,33.1,31.3,30.00,North,-999,0.0,0.0,93,0.00,,,-99.99,WeatherLink 5.4,2013-02-16 05:50:00,
2013-02-16 01:00:00,32.8,31.0,30.00,South,180,0.0,1.0,93,0.00,,,-99.99,WeatherLink 5.4,2013-02-16 06:00:00,
2013-02-16 01:05:00,32.8,31.0,30.00,South,180,0.0,1.0,93,0.00,,,-99.99,WeatherLink 5.4,2013-02-16 06:05:00,
2013-02-16 01:15:00,32.4,30.3,30.00,North,-999,0.0,0.0,92,0.00,,,-99.99,WeatherLink 5.4,2013-02-16 06:15:00,
2013-02-16 01:20:00,32.4,30.3,30.00,North,-999,0.0,0.0,92,0.00,,,-99.99,WeatherLink 5.4,2013-02-16 06:20:00,
2013-02-16 01:30:00,31.8,29.7,29.99,North,-999,0.0,0.0,92,0.00,,,-99.99,WeatherLink 5.4,2013-02-16 06:30:00,
2013-02-16 01:45:00,31.3,29.2,29.99,North,-999,0.0,0.0,92,0.00,,,-99.99,WeatherLink 5.4,2013-02-16 06:45:00,
2013-02-16 01:50:00,31.3,29.2,29.99,North,-999,0.0,0.0,92,0.00,,,-99.99,WeatherLink 5.4,2013-02-16 06:50:00,
2013-02-16 02:00:00,30.9,28.9,29.99,North,-999,0.0,0.0,92,0.00,,,-99.99,WeatherLink 5.4,2013-02-16 07:00:00,
2013-02-16 02:05:00,30.9,28.9,29.99,North,-999,0.0,0.0,92,0.00,,,-99.99,WeatherLink 5.4,2013-02-16 07:05:00,
2013-02-16 02:15:00,30.7,28.7,29.98,North,-999,0.0,0.0,92,0.00,,,-99.99,WeatherLink 5.4,2013-02-16 07:15:00,
2013-02-16 02:30:00,30.7,28.9,29.99,North,-999,0.0,0.0,93,0.00,,,-99.99,WeatherLink 5.4,2013-02-16 07:30:00,
2013-02-16 02:35:00,30.7,28.9,29.99,North,-999,0.0,0.0,93,0.00,,,-99.99,WeatherLink 5.4,2013-02-16 07:35:00,
2013-02-16 02:45:00,30.9,29.1,29.98,North,-999,0.0,0.0,93,0.00,,,-99.99,WeatherLink 5.4,2013-02-16 07:45:00,
2013-02-16 02:50:00,30.9,29.1,29.98,North,-999,0.0,0.0,93,0.00,,,-99.99,WeatherLink 5.4,2013-02-16 07:50:00,
2013-02-16 03:00:00,30.9,29.1,29.98,North,-999,0.0,0.0,93,0.00,,,-99.99,WeatherLink 5.4,2013-02-16 08:00:00,
2013-02-16 03:05:00,30.9,29.1,29.98,North,-999,0.0,0.0,93,0.00,,,-99.99,WeatherLink 5.4,2013-02-16 08:05:00,
2013-02-16 03:15:00,31.0,29.2,29.98,North,-999,0.0,0.0,93,0.00,,,-99.99,WeatherLink 5.4,2013-02-16 08:15:00,
2013-02-16 03:20:00,31.0,29.2,29.98,North,-999,0.0,0.0,93,0.00,,,-99.99,WeatherLink 5.4,2013-02-16 08:20:00,
2013-02-16 03:30:00,31.2,29.7,29.98,North,-999,0.0,0.0,94,0.00,,,-99.99,WeatherLink 5.4,2013-02-16 08:30:00,
2013-02-16 03:45:00,31.3,29.8,29.98,North,-999,0.0,0.0,94,0.00,,,-99.99,WeatherLink 5.4,2013-02-16 08:45:00,
2013-02-16 04:00:00,31.5,30.0,29.98,North,-999,0.0,0.0,94,0.00,,,-99.99,WeatherLink 5.4,2013-02-16 09:00:00,
2013-02-16 04:15:00,31.5,30.0,29.98,North,-999,0.0,0.0,94,0.00,,,-99.99,WeatherLink 5.4,2013-02-16 09:15:00,
2013-02-16 04:30:00,31.6,30.1,29.99,North,-999,0.0,0.0,94,0.00,,,-99.99,WeatherLink 5.4,2013-02-16 09:30:00,
2013-02-16 04:35:00,31.6,30.1,29.99,North,-999,0.0,0.0,94,0.00,,,-99.99,WeatherLink 5.4,2013-02-16 09:35:00,
2013-02-16 04:45:00,31.8,30.3,29.99,North,-999,0.0,0.0,94,0.00,,,-99.99,WeatherLink 5.4,2013-02-16 09:45:00,
2013-02-16 05:00:00,31.8,30.3,29.98,North,-999,0.0,0.0,94,0.00,,,-99.99,WeatherLink 5.4,2013-02-16 10:00:00,
2013-02-16 05:05:00,31.8,30.3,29.98,North,-999,0.0,0.0,94,0.00,,,-99.99,WeatherLink 5.4,2013-02-16 10:05:00,
2013-02-16 05:15:00,31.8,30.3,29.99,South,180,0.0,2.0,94,0.00,,,-99.99,WeatherLink 5.4,2013-02-16 10:15:00,
2013-02-16 05:20:00,31.8,30.3,29.99,South,180,0.0,2.0,94,0.00,,,-99.99,WeatherLink 5.4,2013-02-16 10:20:00,
2013-02-16 05:30:00,31.8,30.3,30.00,North,0,0.0,1.0,94,0.00,,,-99.99,WeatherLink 5.4,2013-02-16 10:30:00,
2013-02-16 05:45:00,31.8,30.3,30.00,North,-999,0.0,0.0,94,0.00,,,-99.99,WeatherLink 5.4,2013-02-16 10:45:00,
2013-02-16 06:00:00,31.8,30.3,30.00,NNE,22,0.0,2.0,94,0.00,,,-99.99,WeatherLink 5.4,2013-02-16 11:00:00,
2013-02-16 06:05:00,31.8,30.3,30.00,NNE,22,0.0,2.0,94,0.00,,,-99.99,WeatherLink 5.4,2013-02-16 11:05:00,
2013-02-16 06:15:00,31.8,30.3,30.00,North,0,2.0,7.0,94,0.00,,,-99.99,WeatherLink 5.4,2013-02-16 11:15:00,
2013-02-16 06:30:00,31.6,29.8,30.00,North,0,1.0,5.0,93,0.00,,,-99.99,WeatherLink 5.4,2013-02-16 11:30:00,
2013-02-16 06:35:00,31.6,29.8,30.00,North,0,1.0,5.0,93,0.00,,,-99.99,WeatherLink 5.4,2013-02-16 11:35:00,
2013-02-16 06:45:00,31.3,29.5,29.99,ENE,67,3.0,7.0,93,0.00,,,-99.99,WeatherLink 5.4,2013-02-16 11:45:00,
2013-02-16 07:00:00,31.2,28.9,29.99,NE,45,3.0,10.0,91,0.00,,,-99.99,WeatherLink 5.4,2013-02-16 12:00:00,
2013-02-16 07:15:00,31.0,28.7,30.00,NE,45,2.0,6.0,91,0.00,,,-99.99,WeatherLink 5.4,2013-02-16 12:15:00,
2013-02-16 07:30:00,31.0,28.4,30.00,NE,45,1.0,5.0,90,0.00,,,-99.99,WeatherLink 5.4,2013-02-16 12:30:00,
2013-02-16 07:35:00,31.0,28.4,30.00,NE,45,1.0,5.0,90,0.00,,,-99.99,WeatherLink 5.4,2013-02-16 12:35:00,
2013-02-16 07:45:00,31.0,28.1,30.00,NNE,22,1.0,8.0,89,0.00,,,-99.99,WeatherLink 5.4,2013-02-16 12:45:00,
2013-02-16 08:00:00,31.2,28.1,30.00,NNE,22,1.0,3.0,88,0.00,,,-99.99,WeatherLink 5.4,2013-02-16 13:00:00,
2013-02-16 08:15:00,31.5,28.1,30.00,NNE,22,0.0,3.0,87,0.00,,,-99.99,WeatherLink 5.4,2013-02-16 13:15:00,
2013-02-16 08:30:00,31.6,27.9,30.00,North,0,0.0,2.0,86,0.00,,,-99.99,WeatherLink 5.4,2013-02-16 13:30:00,
2013-02-16 08:35:00,31.6,27.9,30.00,North,0,0.0,2.0,86,0.00,,,-99.99,WeatherLink 5.4,2013-02-16 13:35:00,
2013-02-16 08:45:00,31.9,27.9,30.00,North,0,1.0,5.0,85,0.00,,,-99.99,WeatherLink 5.4,2013-02-16 13:45:00,
2013-02-16 08:50:00,31.9,27.9,30.00,North,0,1.0,5.0,85,0.00,,,-99.99,WeatherLink 5.4,2013-02-16 13:50:00,
2013-02-16 09:00:00,32.2,27.9,30.00,North,0,1.0,5.0,84,0.00,,,-99.99,WeatherLink 5.4,2013-02-16 14:00:00,
2013-02-16 09:15:00,32.5,27.9,30.00,North,0,1.0,5.0,83,0.00,,,-99.99,WeatherLink 5.4,2013-02-16 14:15:00,
2013-02-16 09:20:00,32.5,27.9,30.00,North,0,1.0,5.0,83,0.00,,,-99.99,WeatherLink 5.4,2013-02-16 14:20:00,
2013-02-16 09:30:00,32.8,27.3,29.99,North,0,1.0,5.0,80,0.00,,,-99.99,WeatherLink 5.4,2013-02-16 14:30:00,
2013-02-16 09:45:00,33.2,27.4,29.99,NNW,337,2.0,6.0,79,0.00,,,-99.99,WeatherLink 5.4,2013-02-16 14:45:00,
2013-02-16 09:50:00,33.2,27.4,29.99,NNW,337,2.0,6.0,79,0.00,,,-99.99,WeatherLink 5.4,2013-02-16 14:50:00,
2013-02-16 10:00:00,33.7,26.9,29.99,NNW,337,3.0,8.0,76,0.00,,,-99.99,WeatherLink 5.4,2013-02-16 15:00:00,
2013-02-16 10:15:00,34.0,26.9,29.99,North,0,4.0,7.0,75,0.00,,,-99.99,WeatherLink 5.4,2013-02-16 15:15:00,
2013-02-16 10:20:00,34.0,26.9,29.99,North,0,4.0,7.0,75,0.00,,,-99.99,WeatherLink 5.4,2013-02-16 15:20:00,
2013-02-16 10:30:00,33.8,25.4,29.99,North,0,5.0,10.0,71,0.00,,,-99.99,WeatherLink 5.4,2013-02-16 15:30:00,
2013-02-16 10:35:00,33.8,25.4,29.99,North,0,5.0,10.0,71,0.00,,,-99.99,WeatherLink 5.4,2013-02-16 15:35:00,
2013-02-16 10:45:00,33.5,25.1,29.99,North,0,4.0,11.0,71,0.00,,,-99.99,WeatherLink 5.4,2013-02-16 15:45:00,
2013-02-16 11:00:00,33.5,24.8,29.99,North,0,4.0,10.0,70,0.00,,,-99.99,WeatherLink 5.4,2013-02-16 16:00:00,
2013-02-16 11:15:00,34.0,23.8,29.98,North,0,4.0,8.0,66,0.00,,,-99.99,WeatherLink 5.4,2013-02-16 16:15:00,
2013-02-16 11:20:00,34.0,23.8,29.98,North,0,4.0,8.0,66,0.00,,,-99.99,WeatherLink 5.4,2013-02-16 16:20:00,
2013-02-16 11:30:00,34.3,24.5,29.98,North,0,3.0,6.0,67,0.00,,,-99.99,WeatherLink 5.4,2013-02-16 16:30:00,
2013-02-16 11:35:00,34.3,24.5,29.98,North,0,3.0,6.0,67,0.00,,,-99.99,WeatherLink 5.4,2013-02-16 16:35:00,
2013-02-16 11:45:00,34.3,23.7,29.98,North,0,4.0,9.0,65,0.00,,,-99.99,WeatherLink 5.4,2013-02-16 16:45:00,
2013-02-16 12:00:00,34.3,23.0,29.97,North,0,3.0,7.0,63,0.00,,,-99.99,WeatherLink 5.4,2013-02-16 17:00:00,
2013-02-16 12:05:00,34.3,23.0,29.97,North,0,3.0,7.0,63,0.00,,,-99.99,WeatherLink 5.4,2013-02-16 17:05:00,
2013-02-16 12:15:00,34.3,23.7,29.96,North,0,3.0,8.0,65,0.00,,,-99.99,WeatherLink 5.4,2013-02-16 17:15:00,
2013-02-16 12:30:00,34.9,24.3,29.95,North,0,3.0,8.0,65,0.00,,,-99.99,WeatherLink 5.4,2013-02-16 17:30:00,
2013-02-16 12:45:00,35.6,22.7,29.94,NNW,337,4.0,12.0,59,0.00,,,-99.99,WeatherLink 5.4,2013-02-16 17:45:00,
2013-02-16 12:50:00,35.6,22.7,29.94,NNW,337,4.0,12.0,59,0.00,,,-99.99,WeatherLink 5.4,2013-02-16 17:50:00,
2013-02-16 13:00:00,35.5,22.2,29.92,North,0,5.0,10.0,58,0.00,,,-99.99,WeatherLink 5.4,2013-02-16 18:00:00,
2013-02-16 13:15:00,35.5,22.6,29.93,North,0,5.0,11.0,59,0.00,,,-99.99,WeatherLink 5.4,2013-02-16 18:15:00,
2013-02-16 13:30:00,35.6,22.3,29.93,NNW,337,6.0,13.0,58,0.00,,,-99.99,WeatherLink 5.4,2013-02-16 18:30:00,
2013-02-16 13:45:00,35.3,21.6,29.93,NNW,337,6.0,13.0,57,0.00,,,-99.99,WeatherLink 5.4,2013-02-16 18:45:00,
2013-02-16 13:50:00,35.3,21.6,29.93,NNW,337,6.0,13.0,57,0.00,,,-99.99,WeatherLink 5.4,2013-02-16 18:50:00,
2013-02-16 14:00:00,35.0,21.3,29.92,NNW,337,6.0,12.0,57,0.00,,,-99.99,WeatherLink 5.4,2013-02-16 19:00:00,
2013-02-16 14:15:00,34.9,21.2,29.91,NNW,337,5.0,12.0,57,0.00,,,-99.99,WeatherLink 5.4,2013-02-16 19:15:00,
2013-02-16 14:20:00,34.9,21.2,29.91,NNW,337,5.0,12.0,57,0.00,,,-99.99,WeatherLink 5.4,2013-02-16 19:20:00,
2013-02-16 14:30:00,34.6,20.9,29.91,NNW,337,5.0,11.0,57,0.00,,,-99.99,WeatherLink 5.4,2013-02-16 19:30:00,
2013-02-16 14:45:00,34.4,21.1,29.91,NNW,337,4.0,10.0,58,0.00,,,-99.99,WeatherLink 5.4,2013-02-16 19:45:00,
2013-02-16 15:00:00,34.1,21.3,29.91,North,0,4.0,11.0,59,0.00,,,-99.99,WeatherLink 5.4,2013-02-16 20:00:00,
2013-02-16 15:15:00,34.1,20.4,29.91,NNW,337,5.0,11.0,57,0.00,,,-99.99,WeatherLink 5.4,2013-02-16 20:15:00,
2013-02-16 15:30:00,34.1,19.2,29.91,NNW,337,6.0,11.0,54,0.00,,,-99.99,WeatherLink 5.4,2013-02-16 20:30:00,
2013-02-16 15:35:00,34.1,19.2,29.91,NNW,337,6.0,11.0,54,0.00,,,-99.99,WeatherLink 5.4,2013-02-16 20:35:00,
2013-02-16 15:45:00,34.1,18.7,29.90,NNW,337,5.0,12.0,53,0.00,,,-99.99,WeatherLink 5.4,2013-02-16 20:45:00,
2013-02-16 15:50:00,34.1,18.7,29.90,NNW,337,5.0,12.0,53,0.00,,,-99.99,WeatherLink 5.4,2013-02-16 20:50:00,
2013-02-16 16:00:00,34.3,18.9,29.91,NNW,337,4.0,12.0,53,0.00,,,-99.99,WeatherLink 5.4,2013-02-16 21:00:00,
2013-02-16 16:15:00,33.8,19.3,29.91,NNW,337,6.0,11.0,55,0.00,,,-99.99,WeatherLink 5.4,2013-02-16 21:15:00,
2013-02-16 16:20:00,33.8,19.3,29.91,NNW,337,6.0,11.0,55,0.00,,,-99.99,WeatherLink 5.4,2013-02-16 21:20:00,
2013-02-16 16:30:00,33.5,17.3,29.91,NNW,337,3.0,10.0,51,0.00,,,-99.99,WeatherLink 5.4,2013-02-16 21:30:00,
2013-02-16 16:35:00,33.5,17.3,29.91,NNW,337,3.0,10.0,51,0.00,,,-99.99,WeatherLink 5.4,2013-02-16 21:35:00,
2013-02-16 16:45:00,33.2,14.6,29.91,NNW,337,5.0,13.0,46,0.00,,,-99.99,WeatherLink 5.4,2013-02-16 21:45:00,
2013-02-16 16:50:00,33.2,14.6,29.91,NNW,337,5.0,13.0,46,0.00,,,-99.99,WeatherLink 5.4,2013-02-16 21:50:00,
2013-02-16 17:00:00,32.9,14.8,29.91,NW,315,4.0,11.0,47,0.00,,,-99.99,WeatherLink 5.4,2013-02-16 22:00:00,
2013-02-16 17:15:00,32.8,15.2,29.92,NNW,337,3.0,11.0,48,0.00,,,-99.99,WeatherLink 5.4,2013-02-16 22:15:00,
2013-02-16 17:20:00,32.8,15.2,29.92,NNW,337,3.0,11.0,48,0.00,,,-99.99,WeatherLink 5.4,2013-02-16 22:20:00,
2013-02-16 17:30:00,32.5,15.4,29.91,NNW,337,3.0,10.0,49,0.00,,,-99.99,WeatherLink 5.4,2013-02-16 22:30:00,
2013-02-16 17:45:00,32.4,15.3,29.91,NW,315,2.0,8.0,49,0.00,,,-99.99,WeatherLink 5.4,2013-02-16 22:45:00,
2013-02-16 18:00:00,32.2,15.6,29.91,NW,315,2.0,7.0,50,0.00,,,-99.99,WeatherLink 5.4,2013-02-16 23:00:00,
2013-02-16 18:15:00,31.9,16.7,29.92,NNW,337,0.0,3.0,53,0.00,,,-99.99,WeatherLink 5.4,2013-02-16 23:15:00,
2013-02-16 18:30:00,31.6,16.0,29.91,NW,315,1.0,7.0,52,0.00,,,-99.99,WeatherLink 5.4,2013-02-16 23:30:00,
2013-02-16 18:45:00,31.5,15.4,29.92,NW,315,2.0,7.0,51,0.00,,,-99.99,WeatherLink 5.4,2013-02-16 23:45:00,
2013-02-16 19:00:00,31.3,14.8,29.92,NW,315,2.0,10.0,50,0.00,,,-99.99,WeatherLink 5.4,2013-02-17 00:00:00,
2013-02-16 19:15:00,31.2,14.7,29.92,NW,315,3.0,9.0,50,0.00,,,-99.99,WeatherLink 5.4,2013-02-17 00:15:00,
2013-02-16 19:30:00,31.0,15.4,29.92,NW,315,3.0,12.0,52,0.00,,,-99.99,WeatherLink 5.4,2013-02-17 00:30:00,
2013-02-16 19:45:00,31.0,15.4,29.92,NW,315,3.0,12.0,52,0.00,,,-99.99,WeatherLink 5.4,2013-02-17 00:45:00,
2013-02-16 20:00:00,30.7,14.7,29.92,NW,315,3.0,12.0,51,0.00,,,-99.99,WeatherLink 5.4,2013-02-17 01:00:00,
2013-02-16 20:15:00,30.7,14.7,29.91,WNW,292,4.0,11.0,51,0.00,,,-99.99,WeatherLink 5.4,2013-02-17 01:15:00,
2013-02-16 20:30:00,30.6,14.6,29.91,NW,315,4.0,12.0,51,0.00,,,-99.99,WeatherLink 5.4,2013-02-17 01:30:00,
2013-02-16 20:45:00,30.4,14.4,29.91,NW,315,4.0,12.0,51,0.00,,,-99.99,WeatherLink 5.4,2013-02-17 01:45:00,
2013-02-16 21:00:00,30.1,15.0,29.91,NW,315,3.0,12.0,53,0.00,,,-99.99,WeatherLink 5.4,2013-02-17 02:00:00,
2013-02-16 21:15:00,30.0,15.3,29.90,NW,315,5.0,13.0,54,0.00,,,-99.99,WeatherLink 5.4,2013-02-17 02:15:00,
2013-02-16 21:30:00,29.8,15.6,29.90,NW,315,5.0,12.0,55,0.00,,,-99.99,WeatherLink 5.4,2013-02-17 02:30:00,
2013-02-16 21:45:00,29.5,16.1,29.90,NW,315,5.0,11.0,57,0.00,,,-99.99,WeatherLink 5.4,2013-02-17 02:45:00,
2013-02-16 21:50:00,29.5,16.1,29.90,NW,315,5.0,11.0,57,0.00,,,-99.99,WeatherLink 5.4,2013-02-17 02:50:00,
2013-02-16 22:00:00,29.3,15.9,29.90,NW,315,5.0,16.0,57,0.00,,,-99.99,WeatherLink 5.4,2013-02-17 03:00:00,
2013-02-16 22:15:00,29.0,16.1,29.90,NW,315,6.0,13.0,58,0.00,,,-99.99,WeatherLink 5.4,2013-02-17 03:15:00,
2013-02-16 22:30:00,28.7,16.2,29.90,NW,315,5.0,14.0,59,0.00,,,-99.99,WeatherLink 5.4,2013-02-17 03:30:00,
2013-02-16 22:35:00,28.7,16.2,29.90,NW,315,5.0,14.0,59,0.00,,,-99.99,WeatherLink 5.4,2013-02-17 03:35:00,
2013-02-16 22:45:00,28.2,15.7,29.89,NW,315,5.0,13.0,59,0.00,,,-99.99,WeatherLink 5.4,2013-02-17 03:45:00,
2013-02-16 23:00:00,27.9,15.4,29.89,NW,315,6.0,18.0,59,0.00,,,-99.99,WeatherLink 5.4,2013-02-17 04:00:00,
2013-02-16 23:15:00,27.8,15.3,29.89,NW,315,6.0,15.0,59,0.00,,,-99.99,WeatherLink 5.4,2013-02-17 04:15:00,
2013-02-16 23:30:00,27.6,15.5,29.88,NW,315,6.0,14.0,60,0.00,,,-99.99,WeatherLink 5.4,2013-02-17 04:30:00,
2013-02-16 23:45:00,27.3,15.2,29.88,NW,315,5.0,16.0,60,0.00,,,-99.99,WeatherLink 5.4,2013-02-17 04:45:00,
2013-02-16 23:50:00,27.3,15.2,29.88,NW,315,5.0,16.0,60,0.00,,,-99.99,WeatherLink 5.4,2013-02-17 04:50:00,